sensor_id;sensor_type;location;lat;lon;timestamp;P1;durP1;ratioP1;P2;durP2;ratioP2
934;SDS011;454;53.254;10.400;2023-08-06T06:34:28;2.70;;;2.30;;
934;SDS011;454;53.254;10.400;2023-08-06T06:36:55;2.90;;;1.80;;
934;SDS011;454;53.254;10.400;2023-08-06T06:39:22;2.43;;;2.23;;
934;SDS011;454;53.254;10.400;2023-08-06T06:41:48;3.50;;;3.17;;
934;SDS011;454;53.254;10.400;2023-08-06T06:44:15;2.13;;;2.03;;
934;SDS011;454;53.254;10.400;2023-08-06T06:46:42;2.67;;;2.47;;
934;SDS011;454;53.254;10.400;2023-08-06T06:49:09;3.50;;;3.23;;
934;SDS011;454;53.254;10.400;2023-08-06T06:51:36;2.30;;;2.17;;
934;SDS011;454;53.254;10.400;2023-08-06T06:54:03;2.40;;;2.40;;
934;SDS011;454;53.254;10.400;2023-08-06T06:56:30;4.23;;;2.63;;
934;SDS011;454;53.254;10.400;2023-08-06T06:58:56;3.03;;;2.83;;
934;SDS011;454;53.254;10.400;2023-08-06T07:01:23;1.90;;;1.80;;
934;SDS011;454;53.254;10.400;2023-08-06T07:03:49;2.87;;;2.50;;
934;SDS011;454;53.254;10.400;2023-08-06T07:06:17;2.97;;;2.77;;
934;SDS011;454;53.254;10.400;2023-08-06T07:08:44;2.60;;;2.50;;
934;SDS011;454;53.254;10.400;2023-08-06T07:11:11;3.40;;;3.10;;
934;SDS011;454;53.254;10.400;2023-08-06T07:13:37;3.27;;;2.60;;
934;SDS011;454;53.254;10.400;2023-08-06T07:16:04;3.37;;;3.10;;
934;SDS011;454;53.254;10.400;2023-08-06T07:18:31;2.80;;;2.60;;
934;SDS011;454;53.254;10.400;2023-08-06T07:20:58;3.00;;;2.83;;
934;SDS011;454;53.254;10.400;2023-08-06T07:23:26;3.13;;;2.93;;
934;SDS011;454;53.254;10.400;2023-08-06T07:25:52;2.30;;;2.13;;
934;SDS011;454;53.254;10.400;2023-08-06T07:28:19;4.83;;;2.73;;
934;SDS011;454;53.254;10.400;2023-08-06T07:30:47;2.93;;;2.67;;
934;SDS011;454;53.254;10.400;2023-08-06T07:33:14;3.03;;;2.87;;
934;SDS011;454;53.254;10.400;2023-08-06T07:35:40;4.03;;;3.73;;
934;SDS011;454;53.254;10.400;2023-08-06T07:38:08;2.87;;;2.60;;
934;SDS011;454;53.254;10.400;2023-08-06T07:40:36;4.27;;;3.73;;
934;SDS011;454;53.254;10.400;2023-08-06T07:43:03;3.60;;;3.07;;
934;SDS011;454;53.254;10.400;2023-08-06T07:45:32;2.70;;;2.50;;
934;SDS011;454;53.254;10.400;2023-08-06T07:47:59;3.77;;;3.47;;
934;SDS011;454;53.254;10.400;2023-08-06T07:50:26;3.00;;;2.80;;
934;SDS011;454;53.254;10.400;2023-08-06T07:52:53;3.10;;;2.90;;
934;SDS011;454;53.254;10.400;2023-08-06T07:55:19;13.07;;;3.07;;
934;SDS011;454;53.254;10.400;2023-08-06T07:57:47;3.50;;;2.47;;
934;SDS011;454;53.254;10.400;2023-08-06T08:00:14;2.93;;;2.83;;
934;SDS011;454;53.254;10.400;2023-08-06T08:02:41;2.80;;;2.70;;
934;SDS011;454;53.254;10.400;2023-08-06T08:05:07;2.90;;;2.70;;
934;SDS011;454;53.254;10.400;2023-08-06T08:07:34;1.90;;;1.80;;
934;SDS011;454;53.254;10.400;2023-08-06T08:10:01;3.07;;;2.80;;
934;SDS011;454;53.254;10.400;2023-08-06T08:12:28;3.30;;;3.03;;
934;SDS011;454;53.254;10.400;2023-08-06T08:14:56;6.10;;;3.10;;
934;SDS011;454;53.254;10.400;2023-08-06T08:17:22;3.10;;;2.90;;
934;SDS011;454;53.254;10.400;2023-08-06T08:19:49;3.73;;;3.27;;
934;SDS011;454;53.254;10.400;2023-08-06T08:22:16;2.60;;;2.47;;
934;SDS011;454;53.254;10.400;2023-08-06T08:24:43;4.00;;;3.60;;
934;SDS011;454;53.254;10.400;2023-08-06T08:27:09;3.80;;;3.37;;
934;SDS011;454;53.254;10.400;2023-08-06T08:29:36;10.87;;;3.10;;
934;SDS011;454;53.254;10.400;2023-08-06T08:32:04;4.33;;;3.90;;
934;SDS011;454;53.254;10.400;2023-08-06T08:34:31;3.53;;;3.43;;
934;SDS011;454;53.254;10.400;2023-08-06T08:36:58;3.07;;;2.97;;
934;SDS011;454;53.254;10.400;2023-08-06T08:39:24;5.13;;;3.47;;
934;SDS011;454;53.254;10.400;2023-08-06T08:41:51;6.43;;;4.80;;
934;SDS011;454;53.254;10.400;2023-08-06T08:44:18;4.03;;;3.07;;
934;SDS011;454;53.254;10.400;2023-08-06T08:46:45;3.07;;;2.93;;
934;SDS011;454;53.254;10.400;2023-08-06T08:49:15;4.67;;;3.47;;
934;SDS011;454;53.254;10.400;2023-08-06T08:51:43;7.03;;;4.10;;
934;SDS011;454;53.254;10.400;2023-08-06T08:54:11;3.40;;;3.20;;
934;SDS011;454;53.254;10.400;2023-08-06T08:56:41;4.37;;;4.07;;
934;SDS011;454;53.254;10.400;2023-08-06T08:59:07;3.27;;;3.13;;
934;SDS011;454;53.254;10.400;2023-08-06T09:01:35;4.50;;;4.20;;
934;SDS011;454;53.254;10.400;2023-08-06T09:04:06;4.70;;;3.40;;
934;SDS011;454;53.254;10.400;2023-08-06T09:06:35;3.93;;;3.73;;
934;SDS011;454;53.254;10.400;2023-08-06T09:09:06;3.43;;;3.20;;
934;SDS011;454;53.254;10.400;2023-08-06T09:11:37;3.83;;;3.70;;
934;SDS011;454;53.254;10.400;2023-08-06T09:14:09;4.10;;;3.80;;
934;SDS011;454;53.254;10.400;2023-08-06T09:16:37;4.43;;;3.77;;
934;SDS011;454;53.254;10.400;2023-08-06T09:19:07;4.17;;;3.87;;
934;SDS011;454;53.254;10.400;2023-08-06T09:21:37;3.63;;;3.40;;
934;SDS011;454;53.254;10.400;2023-08-06T09:24:07;6.10;;;4.17;;
934;SDS011;454;53.254;10.400;2023-08-06T09:26:35;4.57;;;3.93;;
934;SDS011;454;53.254;10.400;2023-08-06T09:29:04;3.40;;;3.10;;
934;SDS011;454;53.254;10.400;2023-08-06T09:31:38;5.30;;;3.80;;
934;SDS011;454;53.254;10.400;2023-08-06T09:34:10;3.20;;;3.00;;
934;SDS011;454;53.254;10.400;2023-08-06T09:36:40;3.40;;;3.20;;
934;SDS011;454;53.254;10.400;2023-08-06T09:39:12;5.10;;;4.03;;
934;SDS011;454;53.254;10.400;2023-08-06T09:41:39;3.80;;;3.50;;
934;SDS011;454;53.254;10.400;2023-08-06T09:44:09;3.10;;;3.00;;
934;SDS011;454;53.254;10.400;2023-08-06T09:46:46;4.30;;;4.00;;
934;SDS011;454;53.254;10.400;2023-08-06T09:49:14;3.30;;;3.10;;
934;SDS011;454;53.254;10.400;2023-08-06T09:51:42;4.10;;;3.80;;
934;SDS011;454;53.254;10.400;2023-08-06T09:54:09;4.30;;;3.60;;
934;SDS011;454;53.254;10.400;2023-08-06T09:56:38;4.03;;;3.63;;
934;SDS011;454;53.254;10.400;2023-08-06T09:59:06;3.53;;;3.30;;
934;SDS011;454;53.254;10.400;2023-08-06T10:01:33;3.70;;;3.50;;
934;SDS011;454;53.254;10.400;2023-08-06T10:04:01;5.40;;;3.47;;
934;SDS011;454;53.254;10.400;2023-08-06T10:06:29;6.40;;;4.37;;
934;SDS011;454;53.254;10.400;2023-08-06T10:09:01;3.57;;;3.40;;
934;SDS011;454;53.254;10.400;2023-08-06T10:11:28;4.67;;;3.67;;
934;SDS011;454;53.254;10.400;2023-08-06T10:13:58;5.07;;;3.80;;
934;SDS011;454;53.254;10.400;2023-08-06T10:16:31;3.30;;;3.13;;
934;SDS011;454;53.254;10.400;2023-08-06T10:18:58;3.50;;;3.30;;
934;SDS011;454;53.254;10.400;2023-08-06T10:21:27;3.10;;;2.90;;
934;SDS011;454;53.254;10.400;2023-08-06T10:23:55;3.43;;;3.00;;
934;SDS011;454;53.254;10.400;2023-08-06T10:26:26;6.70;;;3.60;;
934;SDS011;454;53.254;10.400;2023-08-06T10:28:53;3.00;;;2.87;;
934;SDS011;454;53.254;10.400;2023-08-06T10:31:20;4.40;;;4.00;;
934;SDS011;454;53.254;10.400;2023-08-06T10:34:11;3.20;;;3.00;;
934;SDS011;454;53.254;10.400;2023-08-06T10:36:44;3.87;;;3.67;;
934;SDS011;454;53.254;10.400;2023-08-06T10:39:12;2.60;;;2.40;;
934;SDS011;454;53.254;10.400;2023-08-06T10:41:41;2.90;;;2.80;;
934;SDS011;454;53.254;10.400;2023-08-06T10:44:09;3.17;;;3.07;;
934;SDS011;454;53.254;10.400;2023-08-06T10:46:36;3.70;;;3.40;;
934;SDS011;454;53.254;10.400;2023-08-06T10:49:04;5.40;;;4.10;;
934;SDS011;454;53.254;10.400;2023-08-06T10:51:32;4.27;;;3.93;;
934;SDS011;454;53.254;10.400;2023-08-06T10:53:59;3.77;;;3.47;;
934;SDS011;454;53.254;10.400;2023-08-06T10:56:25;4.13;;;2.97;;
934;SDS011;454;53.254;10.400;2023-08-06T10:58:54;3.73;;;3.00;;
934;SDS011;454;53.254;10.400;2023-08-06T11:01:22;3.10;;;2.90;;
934;SDS011;454;53.254;10.400;2023-08-06T11:03:50;3.47;;;3.17;;
934;SDS011;454;53.254;10.400;2023-08-06T11:06:18;3.20;;;3.00;;
934;SDS011;454;53.254;10.400;2023-08-06T11:08:49;2.60;;;2.50;;
934;SDS011;454;53.254;10.400;2023-08-06T11:11:17;2.37;;;2.20;;
934;SDS011;454;53.254;10.400;2023-08-06T11:13:44;3.57;;;2.33;;
934;SDS011;454;53.254;10.400;2023-08-06T11:16:13;2.37;;;2.33;;
934;SDS011;454;53.254;10.400;2023-08-06T11:18:41;3.50;;;3.20;;
934;SDS011;454;53.254;10.400;2023-08-06T11:21:08;1.70;;;1.60;;
934;SDS011;454;53.254;10.400;2023-08-06T11:23:35;3.90;;;2.57;;
934;SDS011;454;53.254;10.400;2023-08-06T11:26:02;3.10;;;3.00;;
934;SDS011;454;53.254;10.400;2023-08-06T11:28:28;2.20;;;2.20;;
934;SDS011;454;53.254;10.400;2023-08-06T11:30:55;2.10;;;2.00;;
934;SDS011;454;53.254;10.400;2023-08-06T11:33:27;1.63;;;1.63;;
934;SDS011;454;53.254;10.400;2023-08-06T11:35:54;1.70;;;1.60;;
934;SDS011;454;53.254;10.400;2023-08-06T11:38:24;1.80;;;1.80;;
934;SDS011;454;53.254;10.400;2023-08-06T11:40:51;2.00;;;1.90;;
934;SDS011;454;53.254;10.400;2023-08-06T11:43:18;1.97;;;1.87;;
934;SDS011;454;53.254;10.400;2023-08-06T11:45:47;2.33;;;2.33;;
934;SDS011;454;53.254;10.400;2023-08-06T11:48:15;1.80;;;1.80;;
934;SDS011;454;53.254;10.400;2023-08-06T11:50:44;1.70;;;1.70;;
934;SDS011;454;53.254;10.400;2023-08-06T11:53:12;1.70;;;1.60;;
934;SDS011;454;53.254;10.400;2023-08-06T11:55:40;1.70;;;1.70;;
934;SDS011;454;53.254;10.400;2023-08-06T11:58:08;1.73;;;1.67;;
934;SDS011;454;53.254;10.400;2023-08-06T12:00:36;1.97;;;1.93;;
934;SDS011;454;53.254;10.400;2023-08-06T12:03:04;1.43;;;1.43;;
934;SDS011;454;53.254;10.400;2023-08-06T12:05:31;1.30;;;1.30;;
934;SDS011;454;53.254;10.400;2023-08-06T12:08:00;1.40;;;1.40;;
934;SDS011;454;53.254;10.400;2023-08-06T12:10:28;2.23;;;2.13;;
934;SDS011;454;53.254;10.400;2023-08-06T12:12:56;1.80;;;1.70;;
934;SDS011;454;53.254;10.400;2023-08-06T12:15:23;1.33;;;1.33;;
934;SDS011;454;53.254;10.400;2023-08-06T12:17:50;4.00;;;2.13;;
934;SDS011;454;53.254;10.400;2023-08-06T12:20:17;2.27;;;2.17;;
934;SDS011;454;53.254;10.400;2023-08-06T12:22:43;1.33;;;1.33;;
934;SDS011;454;53.254;10.400;2023-08-06T12:25:12;2.47;;;2.33;;
934;SDS011;454;53.254;10.400;2023-08-06T12:27:39;2.40;;;2.20;;
934;SDS011;454;53.254;10.400;2023-08-06T12:30:07;2.50;;;2.40;;
934;SDS011;454;53.254;10.400;2023-08-06T12:32:35;2.07;;;1.97;;
934;SDS011;454;53.254;10.400;2023-08-06T12:35:01;1.73;;;1.73;;
934;SDS011;454;53.254;10.400;2023-08-06T12:37:29;2.10;;;2.10;;
934;SDS011;454;53.254;10.400;2023-08-06T12:39:56;1.80;;;1.70;;
934;SDS011;454;53.254;10.400;2023-08-06T12:42:24;2.20;;;2.10;;
934;SDS011;454;53.254;10.400;2023-08-06T12:44:51;2.67;;;2.57;;
934;SDS011;454;53.254;10.400;2023-08-06T12:47:18;3.27;;;3.00;;
934;SDS011;454;53.254;10.400;2023-08-06T12:49:45;3.27;;;3.10;;
934;SDS011;454;53.254;10.400;2023-08-06T12:52:12;6.20;;;3.93;;
934;SDS011;454;53.254;10.400;2023-08-06T12:54:40;2.80;;;2.70;;
934;SDS011;454;53.254;10.400;2023-08-06T12:57:07;2.37;;;2.27;;
934;SDS011;454;53.254;10.400;2023-08-06T12:59:35;4.97;;;2.73;;
934;SDS011;454;53.254;10.400;2023-08-06T13:02:02;3.27;;;3.07;;
934;SDS011;454;53.254;10.400;2023-08-06T13:04:29;2.90;;;2.80;;
934;SDS011;454;53.254;10.400;2023-08-06T13:06:56;2.50;;;2.40;;
934;SDS011;454;53.254;10.400;2023-08-06T13:09:23;1.83;;;1.73;;
934;SDS011;454;53.254;10.400;2023-08-06T13:11:51;2.70;;;2.60;;
934;SDS011;454;53.254;10.400;2023-08-06T13:14:18;2.23;;;2.13;;
934;SDS011;454;53.254;10.400;2023-08-06T13:16:46;2.80;;;2.70;;
934;SDS011;454;53.254;10.400;2023-08-06T13:19:13;3.30;;;3.10;;
934;SDS011;454;53.254;10.400;2023-08-06T13:21:58;2.70;;;2.60;;
934;SDS011;454;53.254;10.400;2023-08-06T13:24:26;2.60;;;2.50;;
934;SDS011;454;53.254;10.400;2023-08-06T13:26:53;3.43;;;2.63;;
934;SDS011;454;53.254;10.400;2023-08-06T13:29:20;7.40;;;3.07;;
934;SDS011;454;53.254;10.400;2023-08-06T13:31:48;2.50;;;2.40;;
934;SDS011;454;53.254;10.400;2023-08-06T13:34:15;2.53;;;2.43;;
934;SDS011;454;53.254;10.400;2023-08-06T13:36:42;2.87;;;2.67;;
934;SDS011;454;53.254;10.400;2023-08-06T13:39:09;3.00;;;2.90;;
934;SDS011;454;53.254;10.400;2023-08-06T13:41:37;2.30;;;2.13;;
934;SDS011;454;53.254;10.400;2023-08-06T13:44:03;4.00;;;2.43;;
934;SDS011;454;53.254;10.400;2023-08-06T13:46:30;3.20;;;2.97;;
934;SDS011;454;53.254;10.400;2023-08-06T13:48:58;2.77;;;2.57;;
934;SDS011;454;53.254;10.400;2023-08-06T13:51:25;2.50;;;2.40;;
934;SDS011;454;53.254;10.400;2023-08-06T13:53:51;4.67;;;2.73;;
934;SDS011;454;53.254;10.400;2023-08-06T13:56:19;2.83;;;2.73;;
934;SDS011;454;53.254;10.400;2023-08-06T13:58:46;2.67;;;2.47;;
934;SDS011;454;53.254;10.400;2023-08-06T14:01:12;3.87;;;3.30;;
934;SDS011;454;53.254;10.400;2023-08-06T14:03:42;2.83;;;2.63;;
934;SDS011;454;53.254;10.400;2023-08-06T14:06:10;2.87;;;2.77;;
934;SDS011;454;53.254;10.400;2023-08-06T14:08:37;4.17;;;3.20;;
934;SDS011;454;53.254;10.400;2023-08-06T14:11:05;3.43;;;3.03;;
934;SDS011;454;53.254;10.400;2023-08-06T14:13:32;3.27;;;3.17;;
934;SDS011;454;53.254;10.400;2023-08-06T14:15:58;6.30;;;3.60;;
934;SDS011;454;53.254;10.400;2023-08-06T14:18:25;2.90;;;2.60;;
934;SDS011;454;53.254;10.400;2023-08-06T14:20:52;3.53;;;3.23;;
934;SDS011;454;53.254;10.400;2023-08-06T14:23:20;3.37;;;3.17;;
934;SDS011;454;53.254;10.400;2023-08-06T14:25:47;3.73;;;3.43;;
934;SDS011;454;53.254;10.400;2023-08-06T14:28:14;4.00;;;3.70;;
934;SDS011;454;53.254;10.400;2023-08-06T14:30:40;2.70;;;2.60;;
934;SDS011;454;53.254;10.400;2023-08-06T14:33:07;3.53;;;3.23;;
934;SDS011;454;53.254;10.400;2023-08-06T14:35:34;3.70;;;3.10;;
934;SDS011;454;53.254;10.400;2023-08-06T14:38:00;2.57;;;2.47;;
934;SDS011;454;53.254;10.400;2023-08-06T14:40:28;2.97;;;2.77;;
934;SDS011;454;53.254;10.400;2023-08-06T14:42:59;2.80;;;2.60;;
934;SDS011;454;53.254;10.400;2023-08-06T14:45:26;3.53;;;3.33;;
934;SDS011;454;53.254;10.400;2023-08-06T14:47:53;2.40;;;2.33;;
934;SDS011;454;53.254;10.400;2023-08-06T14:50:19;2.83;;;2.20;;
934;SDS011;454;53.254;10.400;2023-08-06T14:52:46;2.10;;;2.10;;
934;SDS011;454;53.254;10.400;2023-08-06T14:55:17;3.70;;;2.67;;
934;SDS011;454;53.254;10.400;2023-08-06T14:57:50;2.87;;;2.77;;
934;SDS011;454;53.254;10.400;2023-08-06T15:00:17;2.67;;;2.47;;
934;SDS011;454;53.254;10.400;2023-08-06T15:02:44;1.90;;;1.90;;
934;SDS011;454;53.254;10.400;2023-08-06T15:05:10;1.90;;;1.80;;
934;SDS011;454;53.254;10.400;2023-08-06T15:07:37;1.63;;;1.60;;
934;SDS011;454;53.254;10.400;2023-08-06T15:10:04;3.60;;;2.00;;
934;SDS011;454;53.254;10.400;2023-08-06T15:12:32;2.83;;;1.90;;
934;SDS011;454;53.254;10.400;2023-08-06T15:15:00;1.77;;;1.67;;
934;SDS011;454;53.254;10.400;2023-08-06T15:17:27;1.60;;;1.60;;
934;SDS011;454;53.254;10.400;2023-08-06T15:19:55;2.20;;;2.10;;
934;SDS011;454;53.254;10.400;2023-08-06T15:22:23;1.30;;;1.30;;
934;SDS011;454;53.254;10.400;2023-08-06T15:24:50;2.27;;;2.07;;
934;SDS011;454;53.254;10.400;2023-08-06T15:27:17;0.90;;;0.90;;
934;SDS011;454;53.254;10.400;2023-08-06T15:29:44;0.77;;;0.77;;
934;SDS011;454;53.254;10.400;2023-08-06T15:32:12;2.03;;;1.50;;
934;SDS011;454;53.254;10.400;2023-08-06T15:34:39;1.50;;;1.50;;
934;SDS011;454;53.254;10.400;2023-08-06T15:37:05;1.17;;;1.17;;
934;SDS011;454;53.254;10.400;2023-08-06T15:39:32;1.27;;;1.27;;
934;SDS011;454;53.254;10.400;2023-08-06T15:41:59;4.90;;;2.00;;
934;SDS011;454;53.254;10.400;2023-08-06T15:44:26;1.63;;;1.63;;
934;SDS011;454;53.254;10.400;2023-08-06T15:46:52;2.30;;;1.73;;
934;SDS011;454;53.254;10.400;2023-08-06T15:49:20;2.10;;;1.27;;
934;SDS011;454;53.254;10.400;2023-08-06T15:51:47;1.67;;;1.27;;
934;SDS011;454;53.254;10.400;2023-08-06T15:54:14;1.80;;;1.10;;
934;SDS011;454;53.254;10.400;2023-08-06T15:56:40;5.10;;;1.23;;
934;SDS011;454;53.254;10.400;2023-08-06T15:59:22;1.10;;;1.10;;
934;SDS011;454;53.254;10.400;2023-08-06T16:01:50;0.80;;;0.80;;
934;SDS011;454;53.254;10.400;2023-08-06T16:04:17;0.90;;;0.90;;
934;SDS011;454;53.254;10.400;2023-08-06T16:06:45;0.90;;;0.90;;
934;SDS011;454;53.254;10.400;2023-08-06T16:09:12;1.40;;;1.30;;
934;SDS011;454;53.254;10.400;2023-08-06T16:11:40;2.23;;;0.90;;
934;SDS011;454;53.254;10.400;2023-08-06T16:14:07;1.57;;;1.57;;
934;SDS011;454;53.254;10.400;2023-08-06T16:16:33;1.00;;;1.00;;
934;SDS011;454;53.254;10.400;2023-08-06T16:19:00;1.73;;;1.73;;
934;SDS011;454;53.254;10.400;2023-08-06T16:21:27;1.47;;;1.37;;
934;SDS011;454;53.254;10.400;2023-08-06T16:23:55;1.43;;;1.43;;
934;SDS011;454;53.254;10.400;2023-08-06T16:26:22;1.40;;;1.40;;
934;SDS011;454;53.254;10.400;2023-08-06T16:28:49;1.00;;;1.00;;
934;SDS011;454;53.254;10.400;2023-08-06T16:31:15;1.60;;;1.50;;
934;SDS011;454;53.254;10.400;2023-08-06T16:33:42;2.30;;;1.50;;
934;SDS011;454;53.254;10.400;2023-08-06T16:36:09;1.93;;;1.70;;
934;SDS011;454;53.254;10.400;2023-08-06T16:38:35;1.73;;;1.63;;
934;SDS011;454;53.254;10.400;2023-08-06T16:41:03;1.50;;;1.03;;
934;SDS011;454;53.254;10.400;2023-08-06T16:43:30;2.07;;;1.30;;
934;SDS011;454;53.254;10.400;2023-08-06T16:45:57;2.13;;;1.83;;
934;SDS011;454;53.254;10.400;2023-08-06T16:48:24;1.97;;;1.90;;
934;SDS011;454;53.254;10.400;2023-08-06T16:50:52;1.37;;;1.37;;
934;SDS011;454;53.254;10.400;2023-08-06T16:53:19;1.67;;;1.57;;
934;SDS011;454;53.254;10.400;2023-08-06T16:55:47;1.13;;;1.13;;
934;SDS011;454;53.254;10.400;2023-08-06T16:58:15;2.63;;;1.50;;
934;SDS011;454;53.254;10.400;2023-08-06T17:00:43;2.20;;;2.10;;
934;SDS011;454;53.254;10.400;2023-08-06T17:03:10;1.47;;;1.37;;
934;SDS011;454;53.254;10.400;2023-08-06T17:05:36;2.07;;;2.00;;
934;SDS011;454;53.254;10.400;2023-08-06T17:08:03;1.80;;;1.80;;
934;SDS011;454;53.254;10.400;2023-08-06T17:10:30;1.43;;;1.33;;
934;SDS011;454;53.254;10.400;2023-08-06T17:12:58;2.00;;;1.90;;
934;SDS011;454;53.254;10.400;2023-08-06T17:15:26;2.13;;;1.97;;
934;SDS011;454;53.254;10.400;2023-08-06T17:17:53;2.20;;;2.10;;
934;SDS011;454;53.254;10.400;2023-08-06T17:20:19;1.57;;;1.50;;
934;SDS011;454;53.254;10.400;2023-08-06T17:22:46;2.63;;;1.83;;
934;SDS011;454;53.254;10.400;2023-08-06T17:25:13;3.60;;;2.17;;
934;SDS011;454;53.254;10.400;2023-08-06T17:27:39;2.00;;;1.73;;
934;SDS011;454;53.254;10.400;2023-08-06T17:30:06;2.27;;;2.27;;
934;SDS011;454;53.254;10.400;2023-08-06T17:32:35;1.80;;;1.57;;
934;SDS011;454;53.254;10.400;2023-08-06T17:35:04;4.57;;;1.77;;
934;SDS011;454;53.254;10.400;2023-08-06T17:37:31;1.63;;;1.53;;
934;SDS011;454;53.254;10.400;2023-08-06T17:39:58;2.73;;;1.77;;
934;SDS011;454;53.254;10.400;2023-08-06T17:42:25;1.77;;;1.70;;
934;SDS011;454;53.254;10.400;2023-08-06T17:44:51;1.87;;;1.60;;
934;SDS011;454;53.254;10.400;2023-08-06T17:47:18;1.90;;;1.80;;
934;SDS011;454;53.254;10.400;2023-08-06T17:49:46;1.80;;;1.70;;
934;SDS011;454;53.254;10.400;2023-08-06T17:52:13;2.40;;;2.20;;
934;SDS011;454;53.254;10.400;2023-08-06T17:54:40;2.47;;;1.30;;
934;SDS011;454;53.254;10.400;2023-08-06T17:57:06;1.27;;;1.27;;
934;SDS011;454;53.254;10.400;2023-08-06T17:59:33;2.40;;;2.30;;
934;SDS011;454;53.254;10.400;2023-08-06T18:01:59;1.70;;;1.60;;
934;SDS011;454;53.254;10.400;2023-08-06T18:04:26;2.23;;;2.13;;
934;SDS011;454;53.254;10.400;2023-08-06T18:06:54;1.63;;;1.53;;
934;SDS011;454;53.254;10.400;2023-08-06T18:09:21;2.63;;;2.43;;
934;SDS011;454;53.254;10.400;2023-08-06T18:11:48;7.00;;;2.07;;
934;SDS011;454;53.254;10.400;2023-08-06T18:14:14;1.30;;;1.30;;
934;SDS011;454;53.254;10.400;2023-08-06T18:16:41;2.30;;;2.20;;
934;SDS011;454;53.254;10.400;2023-08-06T18:19:08;1.73;;;1.73;;
934;SDS011;454;53.254;10.400;2023-08-06T18:21:34;2.40;;;2.30;;
934;SDS011;454;53.254;10.400;2023-08-06T18:24:03;1.57;;;1.57;;
934;SDS011;454;53.254;10.400;2023-08-06T18:26:29;1.77;;;1.70;;
934;SDS011;454;53.254;10.400;2023-08-06T18:28:56;1.50;;;1.50;;
934;SDS011;454;53.254;10.400;2023-08-06T18:31:23;1.70;;;1.67;;
934;SDS011;454;53.254;10.400;2023-08-06T18:33:49;2.07;;;1.97;;
934;SDS011;454;53.254;10.400;2023-08-06T18:36:16;1.33;;;1.33;;
934;SDS011;454;53.254;10.400;2023-08-06T18:38:43;1.23;;;1.07;;
934;SDS011;454;53.254;10.400;2023-08-06T18:41:15;1.23;;;1.13;;
934;SDS011;454;53.254;10.400;2023-08-06T18:43:43;1.67;;;1.57;;
934;SDS011;454;53.254;10.400;2023-08-06T18:46:10;2.23;;;2.13;;
934;SDS011;454;53.254;10.400;2023-08-06T18:48:37;4.10;;;2.00;;
934;SDS011;454;53.254;10.400;2023-08-06T18:51:04;3.10;;;2.50;;
934;SDS011;454;53.254;10.400;2023-08-06T18:53:30;7.33;;;1.77;;
934;SDS011;454;53.254;10.400;2023-08-06T18:55:57;1.93;;;1.83;;
934;SDS011;454;53.254;10.400;2023-08-06T18:58:25;1.97;;;1.87;;
934;SDS011;454;53.254;10.400;2023-08-06T19:00:55;2.13;;;2.03;;
934;SDS011;454;53.254;10.400;2023-08-06T19:03:22;2.20;;;1.97;;
934;SDS011;454;53.254;10.400;2023-08-06T19:05:49;1.90;;;1.87;;
934;SDS011;454;53.254;10.400;2023-08-06T19:08:16;6.70;;;2.90;;
934;SDS011;454;53.254;10.400;2023-08-06T19:10:43;1.93;;;1.83;;
934;SDS011;454;53.254;10.400;2023-08-06T19:13:10;1.40;;;1.40;;
934;SDS011;454;53.254;10.400;2023-08-06T19:15:39;2.53;;;2.43;;
934;SDS011;454;53.254;10.400;2023-08-06T19:18:11;1.93;;;1.83;;
934;SDS011;454;53.254;10.400;2023-08-06T19:20:40;1.53;;;1.43;;
934;SDS011;454;53.254;10.400;2023-08-06T19:23:07;1.67;;;1.60;;
934;SDS011;454;53.254;10.400;2023-08-06T19:25:39;2.70;;;2.27;;
934;SDS011;454;53.254;10.400;2023-08-06T19:28:06;1.83;;;1.73;;
934;SDS011;454;53.254;10.400;2023-08-06T19:30:36;2.50;;;1.90;;
934;SDS011;454;53.254;10.400;2023-08-06T19:33:06;1.90;;;1.80;;
934;SDS011;454;53.254;10.400;2023-08-06T19:35:34;1.47;;;1.47;;
934;SDS011;454;53.254;10.400;2023-08-06T19:38:02;3.47;;;2.63;;
934;SDS011;454;53.254;10.400;2023-08-06T19:40:28;1.73;;;1.73;;
934;SDS011;454;53.254;10.400;2023-08-06T19:42:55;2.00;;;1.90;;
934;SDS011;454;53.254;10.400;2023-08-06T19:45:22;2.00;;;1.50;;
934;SDS011;454;53.254;10.400;2023-08-06T19:47:48;1.90;;;1.80;;
934;SDS011;454;53.254;10.400;2023-08-06T19:50:16;2.03;;;2.03;;
934;SDS011;454;53.254;10.400;2023-08-06T19:52:43;1.70;;;1.70;;
934;SDS011;454;53.254;10.400;2023-08-06T19:55:11;1.80;;;1.80;;
934;SDS011;454;53.254;10.400;2023-08-06T19:57:37;4.17;;;1.90;;
934;SDS011;454;53.254;10.400;2023-08-06T20:00:05;2.13;;;1.93;;
934;SDS011;454;53.254;10.400;2023-08-06T20:02:33;2.43;;;2.40;;
934;SDS011;454;53.254;10.400;2023-08-06T20:04:59;2.03;;;2.03;;
934;SDS011;454;53.254;10.400;2023-08-06T20:07:29;1.93;;;1.83;;
934;SDS011;454;53.254;10.400;2023-08-06T20:09:56;2.53;;;2.10;;
934;SDS011;454;53.254;10.400;2023-08-06T20:12:23;1.87;;;1.77;;
934;SDS011;454;53.254;10.400;2023-08-06T20:14:50;2.20;;;2.00;;
934;SDS011;454;53.254;10.400;2023-08-06T20:17:16;1.93;;;1.90;;
934;SDS011;454;53.254;10.400;2023-08-06T20:19:43;2.03;;;1.93;;
934;SDS011;454;53.254;10.400;2023-08-06T20:22:09;1.93;;;1.67;;
934;SDS011;454;53.254;10.400;2023-08-06T20:24:37;2.23;;;2.13;;
934;SDS011;454;53.254;10.400;2023-08-06T20:27:04;2.37;;;2.17;;
934;SDS011;454;53.254;10.400;2023-08-06T20:29:32;3.00;;;2.20;;
934;SDS011;454;53.254;10.400;2023-08-06T20:31:58;2.57;;;1.93;;
934;SDS011;454;53.254;10.400;2023-08-06T20:34:25;1.87;;;1.87;;
934;SDS011;454;53.254;10.400;2023-08-06T20:36:52;2.07;;;2.00;;
934;SDS011;454;53.254;10.400;2023-08-06T20:39:18;2.13;;;2.03;;
934;SDS011;454;53.254;10.400;2023-08-06T20:41:46;2.00;;;1.90;;
934;SDS011;454;53.254;10.400;2023-08-06T20:44:13;1.70;;;1.60;;
934;SDS011;454;53.254;10.400;2023-08-06T20:46:40;1.57;;;1.33;;
934;SDS011;454;53.254;10.400;2023-08-06T20:49:06;1.50;;;1.50;;
934;SDS011;454;53.254;10.400;2023-08-06T20:51:33;2.57;;;2.47;;
934;SDS011;454;53.254;10.400;2023-08-06T20:53:59;1.27;;;1.17;;
934;SDS011;454;53.254;10.400;2023-08-06T20:56:26;3.07;;;2.87;;
934;SDS011;454;53.254;10.400;2023-08-06T20:58:55;1.70;;;1.60;;
